createdAt,value
2018-03-25T00:02:15.927Z,31.42
2018-03-25T00:04:44.225Z,31.02
2018-03-25T00:07:11.770Z,31.23
2018-03-25T00:09:39.419Z,30.40
2018-03-25T00:12:06.960Z,30.58
2018-03-25T00:14:35.245Z,33.70
2018-03-25T00:17:02.779Z,37.65
2018-03-25T00:19:30.356Z,32.20
2018-03-25T00:21:57.855Z,31.58
2018-03-25T00:24:25.364Z,33.90
2018-03-25T00:26:52.978Z,31.98
2018-03-25T00:29:20.554Z,32.60
2018-03-25T00:31:48.062Z,31.30
2018-03-25T00:34:16.394Z,29.73
2018-03-25T00:36:43.898Z,31.45
2018-03-25T00:39:11.696Z,33.03
2018-03-25T00:41:39.212Z,33.58
2018-03-25T00:44:06.726Z,34.13
2018-03-25T00:46:34.241Z,35.42
2018-03-25T00:49:01.760Z,35.63
2018-03-25T00:51:29.283Z,33.05
2018-03-25T00:53:57.613Z,35.22
2018-03-25T00:56:25.112Z,48.58
2018-03-25T00:58:52.638Z,40.53
2018-03-25T01:01:20.159Z,40.08
2018-03-25T01:03:47.778Z,36.72
2018-03-25T01:06:15.308Z,37.70
2018-03-25T01:08:42.838Z,37.17
2018-03-25T01:11:10.394Z,41.70
2018-03-25T01:13:37.916Z,35.65
2018-03-25T01:16:11.210Z,39.55
2018-03-25T01:18:38.770Z,39.25
2018-03-25T01:21:06.318Z,39.03
2018-03-25T01:23:33.853Z,40.47
2018-03-25T01:26:01.384Z,41.03
2018-03-25T01:28:28.902Z,40.80
2018-03-25T01:30:56.435Z,34.95
2018-03-25T01:33:23.950Z,41.85
2018-03-25T01:35:52.272Z,38.10
2018-03-25T01:38:19.878Z,42.45
2018-03-25T01:40:47.431Z,39.90
2018-03-25T01:43:15.739Z,37.72
2018-03-25T01:45:43.262Z,40.65
2018-03-25T01:48:10.838Z,38.30
2018-03-25T01:50:38.350Z,42.90
2018-03-25T01:53:05.882Z,40.25
2018-03-25T01:55:33.398Z,38.25
2018-03-25T01:58:00.910Z,39.70
2018-03-25T02:00:28.432Z,41.92
2018-03-25T02:02:56.744Z,42.30
2018-03-25T02:05:24.268Z,44.90
2018-03-25T02:07:51.800Z,39.92
2018-03-25T02:10:19.400Z,44.58
2018-03-25T02:12:46.928Z,41.15
2018-03-25T02:15:14.453Z,41.83
2018-03-25T02:17:41.972Z,40.50
2018-03-25T02:20:09.499Z,38.55
2018-03-25T02:22:37.025Z,40.97
2018-03-25T02:25:04.554Z,44.47
2018-03-25T02:27:32.075Z,41.35
2018-03-25T02:29:59.584Z,38.47
2018-03-25T02:32:27.129Z,41.92
2018-03-25T02:34:54.661Z,40.95
2018-03-25T02:37:22.194Z,36.70
2018-03-25T02:39:49.816Z,40.78
2018-03-25T02:42:17.334Z,41.40
2018-03-25T02:44:44.872Z,38.90
2018-03-25T02:47:12.532Z,40.30
2018-03-25T02:49:40.043Z,38.53
2018-03-25T02:52:08.386Z,38.47
2018-03-25T02:54:35.897Z,39.22
2018-03-25T02:57:03.438Z,41.97
2018-03-25T02:59:31.722Z,37.28
2018-03-25T03:02:00.064Z,40.15
2018-03-25T03:04:27.612Z,35.75
2018-03-25T03:06:55.143Z,38.47
2018-03-25T03:09:22.690Z,35.75
2018-03-25T03:11:50.255Z,37.00
2018-03-25T03:14:17.823Z,40.15
2018-03-25T03:16:45.325Z,45.22
2018-03-25T03:19:12.847Z,42.40
2018-03-25T03:21:40.391Z,38.60
2018-03-25T03:24:08.027Z,39.70
2018-03-25T03:26:35.563Z,36.22
2018-03-25T03:29:03.088Z,39.80
2018-03-25T03:31:30.676Z,39.53
2018-03-25T03:33:58.167Z,40.05
2018-03-25T03:36:26.463Z,39.20
2018-03-25T03:38:54.024Z,36.63
2018-03-25T03:41:21.580Z,36.13
2018-03-25T03:43:49.847Z,37.13
2018-03-25T03:46:18.134Z,41.03
2018-03-25T03:48:45.717Z,39.60
2018-03-25T03:51:13.337Z,40.90
2018-03-25T03:53:40.857Z,42.47
2018-03-25T03:56:08.397Z,41.65
2018-03-25T03:58:35.925Z,41.47
2018-03-25T04:01:03.436Z,38.72
2018-03-25T04:03:30.964Z,38.60
2018-03-25T04:05:58.479Z,37.72
2018-03-25T04:08:25.991Z,43.13
2018-03-25T04:10:53.518Z,40.38
2018-03-25T04:13:21.814Z,40.05
2018-03-25T04:15:50.103Z,38.50
2018-03-25T04:18:17.627Z,37.53
2018-03-25T04:20:45.163Z,38.83
2018-03-25T04:23:12.671Z,37.85
2018-03-25T04:25:40.961Z,36.30
2018-03-25T04:28:08.502Z,34.58
2018-03-25T04:30:36.016Z,37.63
2018-03-25T04:33:04.304Z,43.28
2018-03-25T04:35:31.815Z,38.08
2018-03-25T04:37:59.342Z,36.08
2018-03-25T04:40:26.854Z,38.33
2018-03-25T04:42:54.392Z,39.08
2018-03-25T04:45:22.039Z,38.33
2018-03-25T04:47:50.329Z,41.42
2018-03-25T04:50:17.848Z,39.30
2018-03-25T04:52:45.389Z,34.00
2018-03-25T04:55:12.956Z,39.45
2018-03-25T04:57:40.475Z,37.92
2018-03-25T05:00:08.008Z,37.55
2018-03-25T05:02:36.291Z,39.17
2018-03-25T05:05:04.606Z,42.03
2018-03-25T05:07:32.124Z,39.53
2018-03-25T05:09:59.633Z,37.75
2018-03-25T05:12:27.173Z,36.70
2018-03-25T05:14:54.708Z,36.47
2018-03-25T05:17:22.254Z,39.10
2018-03-25T05:19:50.528Z,34.92
2018-03-25T05:22:18.810Z,34.85
2018-03-25T05:24:47.125Z,36.97
2018-03-25T05:27:14.685Z,37.90
2018-03-25T05:29:42.328Z,36.72
2018-03-25T05:32:09.844Z,36.65
2018-03-25T05:34:37.379Z,35.35
2018-03-25T05:37:04.941Z,37.85
2018-03-25T05:39:32.454Z,34.55
2018-03-25T05:42:00.747Z,37.70
2018-03-25T05:44:28.273Z,33.63
2018-03-25T05:46:55.796Z,34.35
2018-03-25T05:49:23.324Z,33.22
2018-03-25T05:51:50.852Z,35.28
2018-03-25T05:54:18.367Z,36.60
2018-03-25T05:56:45.895Z,33.30
2018-03-25T05:59:14.174Z,42.60
2018-03-25T06:01:41.657Z,34.22
2018-03-25T06:04:09.194Z,32.35
2018-03-25T06:06:36.731Z,35.05
2018-03-25T06:09:05.011Z,32.00
2018-03-25T06:11:33.291Z,30.85
2018-03-25T06:14:01.587Z,35.40
2018-03-25T06:16:29.486Z,36.55
2018-03-25T06:18:56.990Z,39.47
2018-03-25T06:21:24.538Z,36.15
2018-03-25T06:23:52.062Z,34.10
2018-03-25T06:26:19.588Z,28.90
2018-03-25T06:28:47.129Z,30.35
2018-03-25T06:48:34.205Z,34.35
2018-03-25T06:51:01.732Z,31.17
2018-03-25T06:53:29.236Z,31.65
2018-03-25T06:55:56.818Z,31.42
2018-03-25T06:58:24.343Z,32.83
2018-03-25T07:00:51.887Z,33.60
2018-03-25T07:03:19.414Z,32.60
2018-03-25T07:05:46.995Z,31.27
2018-03-25T07:08:15.295Z,30.05
2018-03-25T07:10:42.823Z,28.25
2018-03-25T07:13:10.351Z,29.37
2018-03-25T07:15:37.889Z,29.30
2018-03-25T07:18:05.408Z,31.20
2018-03-25T07:20:32.928Z,32.10
2018-03-25T07:23:00.494Z,29.40
2018-03-25T07:25:28.008Z,30.12
2018-03-25T07:27:55.521Z,30.48
2018-03-25T07:30:23.059Z,30.50
2018-03-25T07:32:50.615Z,30.35
2018-03-25T07:35:18.125Z,31.55
2018-03-25T07:37:46.476Z,28.83
2018-03-25T07:40:14.046Z,31.10
2018-03-25T07:42:42.314Z,27.40
2018-03-25T07:45:10.624Z,27.42
2018-03-25T07:47:38.138Z,30.00
2018-03-25T07:50:05.706Z,27.83
2018-03-25T07:52:33.211Z,30.12
2018-03-25T07:55:00.740Z,29.12
2018-03-25T07:57:28.251Z,29.70
2018-03-25T07:59:55.783Z,28.67
2018-03-25T08:02:23.315Z,30.02
2018-03-25T08:04:50.836Z,30.75
2018-03-25T08:07:18.396Z,29.05
2018-03-25T08:09:45.926Z,31.12
2018-03-25T08:12:13.503Z,28.15
2018-03-25T08:14:41.076Z,30.05
2018-03-25T08:17:08.627Z,31.52
2018-03-25T08:19:36.162Z,33.05
2018-03-25T08:22:03.677Z,33.03
2018-03-25T08:24:31.212Z,34.03
2018-03-25T08:26:58.745Z,36.30
2018-03-25T08:29:26.263Z,33.63
2018-03-25T08:31:53.789Z,32.25
2018-03-25T08:34:22.854Z,32.85
2018-03-25T08:36:50.418Z,31.45
2018-03-25T08:39:17.945Z,30.42
2018-03-25T08:41:45.648Z,34.15
2018-03-25T08:44:13.186Z,43.92
2018-03-25T08:46:40.716Z,32.28
2018-03-25T08:49:08.290Z,27.80
2018-03-25T08:51:35.816Z,29.23
2018-03-25T08:54:03.349Z,31.48
2018-03-25T08:56:30.894Z,29.33
2018-03-25T08:58:59.193Z,32.88
2018-03-25T09:01:26.720Z,32.90
2018-03-25T09:03:55.089Z,26.95
2018-03-25T09:06:22.576Z,30.23
2018-03-25T09:08:50.092Z,32.20
2018-03-25T09:11:17.715Z,31.70
2018-03-25T09:13:45.237Z,31.40
2018-03-25T09:16:13.605Z,35.25
2018-03-25T09:18:41.316Z,34.22
2018-03-25T09:21:08.834Z,31.05
2018-03-25T09:23:37.190Z,32.65
2018-03-25T09:26:04.738Z,33.47
2018-03-25T09:28:32.253Z,31.45
2018-03-25T09:30:59.799Z,34.80
2018-03-25T09:33:27.357Z,33.00
2018-03-25T09:35:55.649Z,32.88
2018-03-25T09:38:23.228Z,33.20
2018-03-25T09:40:50.768Z,33.95
2018-03-25T09:43:18.279Z,30.62
2018-03-25T09:45:45.853Z,31.15
2018-03-25T09:48:13.331Z,31.65
2018-03-25T09:50:41.609Z,32.42
2018-03-25T09:53:09.915Z,31.05
2018-03-25T09:55:37.454Z,64.35
2018-03-25T09:58:05.719Z,48.72
2018-03-25T10:00:36.825Z,30.62
2018-03-25T10:03:09.959Z,30.65
2018-03-25T10:05:38.265Z,31.30
2018-03-25T10:08:05.792Z,29.50
2018-03-25T10:10:33.314Z,31.42
2018-03-25T10:13:00.880Z,29.60
2018-03-25T10:15:28.434Z,30.48
2018-03-25T10:17:55.953Z,34.25
2018-03-25T10:20:23.595Z,31.00
2018-03-25T10:22:51.891Z,30.67
2018-03-25T10:25:20.296Z,32.67
2018-03-25T10:27:47.888Z,30.83
2018-03-25T10:30:15.424Z,34.83
2018-03-25T10:32:42.928Z,70.68
2018-03-25T10:35:11.206Z,31.10
2018-03-25T10:37:39.523Z,30.30
2018-03-25T10:40:07.158Z,30.62
2018-03-25T10:42:34.706Z,32.50
2018-03-25T10:45:02.256Z,30.70
2018-03-25T10:47:30.556Z,32.42
2018-03-25T10:49:58.834Z,34.88
2018-03-25T10:52:26.393Z,34.75
2018-03-25T10:54:54.687Z,32.42
2018-03-25T10:57:22.289Z,32.03
2018-03-25T10:59:49.836Z,34.97
2018-03-25T11:02:17.387Z,36.05
2018-03-25T11:04:44.963Z,33.85
2018-03-25T11:07:12.476Z,32.70
2018-03-25T11:09:40.009Z,35.75
2018-03-25T11:12:07.547Z,33.90
2018-03-25T11:14:35.110Z,33.58
2018-03-25T11:17:02.647Z,35.35
2018-03-25T11:19:30.234Z,35.78
2018-03-25T11:21:57.775Z,35.08
2018-03-25T11:24:25.338Z,35.10
2018-03-25T11:26:52.855Z,33.42
2018-03-25T11:29:20.367Z,32.00
2018-03-25T11:31:47.923Z,50.25
2018-03-25T11:34:15.455Z,32.97
2018-03-25T11:36:43.097Z,33.47
2018-03-25T11:39:10.655Z,30.65
2018-03-25T11:41:38.196Z,35.35
2018-03-25T11:44:05.728Z,45.47
2018-03-25T11:46:33.249Z,34.45
2018-03-25T11:49:00.854Z,34.17
2018-03-25T11:51:28.411Z,32.83
2018-03-25T11:53:55.963Z,32.58
2018-03-25T11:56:23.518Z,34.35
2018-03-25T11:58:51.056Z,31.15
2018-03-25T12:01:18.609Z,30.25
2018-03-25T12:03:46.171Z,32.50
2018-03-25T12:06:13.727Z,32.75
2018-03-25T12:08:41.246Z,34.50
2018-03-25T12:11:08.840Z,33.92
2018-03-25T12:13:36.379Z,30.90
2018-03-25T12:16:03.905Z,31.02
2018-03-25T12:18:31.467Z,33.35
2018-03-25T12:20:58.989Z,31.25
2018-03-25T12:23:26.529Z,33.00
2018-03-25T12:25:54.860Z,32.45
2018-03-25T12:28:22.404Z,32.20
2018-03-25T12:30:49.958Z,32.72
2018-03-25T12:33:17.522Z,33.45
2018-03-25T12:35:45.052Z,32.33
2018-03-25T12:38:13.341Z,33.53
2018-03-25T12:40:40.891Z,36.20
2018-03-25T12:43:08.438Z,33.40
2018-03-25T12:45:36.755Z,31.73
2018-03-25T12:48:04.351Z,33.55
2018-03-25T12:50:31.875Z,32.90
2018-03-25T12:52:59.403Z,32.60
2018-03-25T12:55:26.958Z,33.28
2018-03-25T12:57:55.249Z,32.88
2018-03-25T13:00:22.803Z,34.13
2018-03-25T13:02:50.340Z,32.55
2018-03-25T13:05:17.926Z,34.70
2018-03-25T13:07:45.475Z,33.47
2018-03-25T13:10:13.769Z,34.20
2018-03-25T13:12:41.323Z,32.90
2018-03-25T13:15:08.888Z,33.15
2018-03-25T13:17:36.665Z,33.70
2018-03-25T13:20:09.358Z,32.97
2018-03-25T13:22:37.235Z,32.72
2018-03-25T13:25:05.523Z,34.40
2018-03-25T13:27:33.134Z,33.20
2018-03-25T13:30:00.687Z,33.03
2018-03-25T13:32:28.306Z,34.17
2018-03-25T13:34:55.908Z,33.65
2018-03-25T13:37:23.525Z,32.53
2018-03-25T13:39:51.132Z,34.83
2018-03-25T13:42:18.665Z,31.37
2018-03-25T13:44:46.411Z,34.88
2018-03-25T13:47:14.085Z,33.72
2018-03-25T13:49:41.632Z,34.80
2018-03-25T13:52:09.151Z,32.92
2018-03-25T13:54:36.691Z,33.25
2018-03-25T13:57:04.418Z,34.22
2018-03-25T13:59:31.969Z,36.35
2018-03-25T14:01:59.596Z,36.80
2018-03-25T14:04:27.206Z,36.75
2018-03-25T14:06:54.831Z,37.35
2018-03-25T14:09:22.591Z,35.35
2018-03-25T14:11:50.124Z,34.97
2018-03-25T14:14:17.658Z,37.03
2018-03-25T14:16:45.200Z,35.42
2018-03-25T14:19:12.822Z,33.42
2018-03-25T14:21:41.054Z,34.03
2018-03-25T14:24:08.649Z,34.03
2018-03-25T14:26:36.630Z,34.08
2018-03-25T14:29:04.155Z,34.00
2018-03-25T14:31:31.733Z,35.38
2018-03-25T14:34:00.043Z,35.20
2018-03-25T14:36:27.574Z,39.63
2018-03-25T14:38:55.886Z,33.13
2018-03-25T14:41:23.466Z,33.95
2018-03-25T14:43:51.078Z,39.47
2018-03-25T14:46:19.386Z,32.78
2018-03-25T14:48:47.025Z,33.92
2018-03-25T14:51:15.364Z,32.20
2018-03-25T14:53:43.067Z,31.37
2018-03-25T14:56:10.668Z,30.60
2018-03-25T14:58:38.219Z,32.17
2018-03-25T15:01:05.787Z,31.30
2018-03-25T15:03:33.301Z,31.20
2018-03-25T15:06:00.868Z,32.38
2018-03-25T15:08:28.469Z,30.50
2018-03-25T15:10:56.320Z,64.07
2018-03-25T15:13:23.883Z,44.05
2018-03-25T15:15:51.395Z,29.23
2018-03-25T15:18:18.956Z,31.15
2018-03-25T15:20:46.520Z,32.08
2018-03-25T15:23:14.144Z,36.33
2018-03-25T15:25:41.703Z,34.33
2018-03-25T15:28:09.263Z,33.60
2018-03-25T15:30:36.771Z,33.00
2018-03-25T15:33:04.322Z,32.10
2018-03-25T15:35:32.717Z,32.58
2018-03-25T15:38:00.315Z,35.00
2018-03-25T15:40:27.860Z,32.15
2018-03-25T15:42:55.448Z,35.97
2018-03-25T15:45:22.992Z,32.40
2018-03-25T15:47:50.551Z,30.85
2018-03-25T15:50:18.829Z,32.22
2018-03-25T15:52:46.387Z,38.05
2018-03-25T15:55:14.006Z,33.08
2018-03-25T15:57:41.603Z,33.72
2018-03-25T16:00:09.582Z,34.88
2018-03-25T16:02:37.100Z,31.52
2018-03-25T16:05:05.397Z,30.25
2018-03-25T16:07:33.071Z,30.27
2018-03-25T16:10:00.614Z,32.15
2018-03-25T16:12:28.249Z,30.62
2018-03-25T16:14:56.565Z,32.45
2018-03-25T16:17:24.270Z,30.60
2018-03-25T16:19:51.822Z,30.25
2018-03-25T16:22:19.420Z,31.12
2018-03-25T16:24:48.736Z,32.10
2018-03-25T16:27:16.272Z,34.60
2018-03-25T16:29:43.830Z,35.47
2018-03-25T16:32:12.152Z,34.20
2018-03-25T16:34:39.729Z,32.90
2018-03-25T16:37:07.400Z,32.80
2018-03-25T16:39:34.952Z,35.83
2018-03-25T16:42:02.543Z,37.47
2018-03-25T16:44:30.108Z,34.72
2018-03-25T16:46:57.656Z,33.20
2018-03-25T16:49:25.494Z,33.72
2018-03-25T16:51:53.062Z,35.97
2018-03-25T16:54:20.779Z,35.30
2018-03-25T16:56:48.303Z,31.87
2018-03-25T16:59:15.934Z,36.92
2018-03-25T17:01:43.549Z,37.55
2018-03-25T17:04:11.080Z,36.30
2018-03-25T17:06:38.768Z,33.80
2018-03-25T17:09:07.089Z,33.90
2018-03-25T17:11:35.603Z,39.05
2018-03-25T17:14:03.288Z,36.90
2018-03-25T17:16:30.945Z,40.00
2018-03-25T17:18:58.474Z,36.15
2018-03-25T17:21:26.119Z,39.50
2018-03-25T17:23:53.672Z,37.72
2018-03-25T17:26:21.254Z,39.38
2018-03-25T17:28:48.805Z,40.30
2018-03-25T17:31:16.401Z,39.90
2018-03-25T17:33:43.921Z,39.50
2018-03-25T17:36:11.449Z,38.58
2018-03-25T17:38:39.857Z,35.70
2018-03-25T17:41:07.392Z,36.35
2018-03-25T17:43:34.918Z,39.72
2018-03-25T17:46:02.450Z,35.47
2018-03-25T17:48:29.995Z,35.05
2018-03-25T17:50:57.532Z,39.03
2018-03-25T17:53:25.844Z,42.15
2018-03-25T17:55:53.501Z,40.88
2018-03-25T17:58:21.773Z,38.83
2018-03-25T18:00:49.314Z,36.55
2018-03-25T18:03:16.853Z,36.53
2018-03-25T18:05:45.168Z,44.58
2018-03-25T18:08:12.735Z,92.80
2018-03-25T18:10:40.277Z,46.92
2018-03-25T18:13:07.864Z,34.45
2018-03-25T18:15:35.425Z,31.67
2018-03-25T18:18:03.012Z,31.42
2018-03-25T18:20:30.554Z,31.98
2018-03-25T18:22:58.102Z,30.83
2018-03-25T18:25:25.647Z,30.23
2018-03-25T18:27:53.168Z,32.35
2018-03-25T18:30:20.725Z,34.83
2018-03-25T18:32:48.240Z,32.40
2018-03-25T18:35:15.801Z,36.58
2018-03-25T18:37:43.344Z,35.50
2018-03-25T18:40:10.929Z,34.58
2018-03-25T18:42:38.480Z,36.15
2018-03-25T18:45:06.030Z,40.75
2018-03-25T18:47:33.674Z,42.45
2018-03-25T18:50:01.330Z,37.60
2018-03-25T18:52:28.893Z,37.20
2018-03-25T18:54:57.197Z,37.72
2018-03-25T18:57:24.777Z,38.72
2018-03-25T18:59:52.344Z,36.60
2018-03-25T19:02:19.902Z,37.17
2018-03-25T19:04:47.468Z,36.33
2018-03-25T19:07:15.081Z,36.28
2018-03-25T19:09:42.700Z,40.50
2018-03-25T19:12:10.378Z,35.78
2018-03-25T19:14:38.777Z,36.10
2018-03-25T19:17:06.481Z,36.92
2018-03-25T19:19:34.198Z,36.30
2018-03-25T19:22:01.848Z,39.10
2018-03-25T19:24:30.562Z,39.38
2018-03-25T19:26:58.313Z,37.38
2018-03-25T19:29:25.954Z,40.08
2018-03-25T19:31:53.713Z,35.72
2018-03-25T19:34:22.196Z,37.35
2018-03-25T19:36:49.815Z,38.35
2018-03-25T19:39:17.519Z,37.78
2018-03-25T19:41:45.179Z,37.70
2018-03-25T19:44:13.521Z,41.92
2018-03-25T19:46:41.188Z,37.42
2018-03-25T19:49:08.799Z,38.00
2018-03-25T19:51:36.404Z,40.20
2018-03-25T19:54:03.941Z,40.22
2018-03-25T19:56:31.559Z,36.33
2018-03-25T19:58:59.135Z,39.92
2018-03-25T20:01:27.534Z,38.40
2018-03-25T20:03:55.103Z,38.65
2018-03-25T20:06:22.685Z,39.67
2018-03-25T20:08:50.347Z,37.95
2018-03-25T20:11:17.941Z,37.65
2018-03-25T20:13:45.475Z,36.70
2018-03-25T20:16:13.040Z,37.40
2018-03-25T20:18:40.582Z,36.95
2018-03-25T20:21:08.147Z,35.45
2018-03-25T20:23:35.710Z,34.85
2018-03-25T20:26:03.267Z,33.58
2018-03-25T20:28:30.846Z,36.67
2018-03-25T20:30:58.405Z,34.42
2018-03-25T20:33:25.928Z,34.58
2018-03-25T20:35:53.474Z,31.92
2018-03-25T20:38:21.779Z,28.98
2018-03-25T20:40:49.319Z,33.80
2018-03-25T20:43:17.660Z,29.37
2018-03-25T20:45:45.200Z,30.60
2018-03-25T20:48:12.722Z,33.08
2018-03-25T20:50:41.065Z,26.05
2018-03-25T20:53:08.594Z,27.25
2018-03-25T20:55:36.284Z,27.65
2018-03-25T20:58:03.902Z,24.00
2018-03-25T21:00:31.427Z,26.65
2018-03-25T21:02:59.770Z,26.08
2018-03-25T21:05:27.324Z,23.58
2018-03-25T21:07:54.952Z,23.87
2018-03-25T21:10:22.589Z,25.40
2018-03-25T21:12:50.174Z,24.95
2018-03-25T21:15:17.737Z,28.45
2018-03-25T21:17:45.274Z,28.40
2018-03-25T21:20:13.705Z,25.37
2018-03-25T21:22:42.376Z,30.12
2018-03-25T21:25:09.907Z,24.63
2018-03-25T21:27:38.219Z,26.60
2018-03-25T21:30:05.743Z,27.75
2018-03-25T21:32:33.734Z,26.48
2018-03-25T21:35:01.379Z,25.98
2018-03-25T21:37:29.714Z,25.17
2018-03-25T21:39:58.042Z,23.58
2018-03-25T21:42:25.726Z,28.70
2018-03-25T21:44:53.274Z,25.90
2018-03-25T21:47:20.783Z,24.77
2018-03-25T21:49:48.339Z,23.48
2018-03-25T21:52:15.896Z,24.30
2018-03-25T21:54:43.427Z,25.35
2018-03-25T21:57:11.158Z,23.70
2018-03-25T21:59:39.465Z,25.92
2018-03-25T22:02:07.023Z,26.87
2018-03-25T22:04:34.602Z,24.77
2018-03-25T22:07:02.176Z,26.40
2018-03-25T22:09:29.711Z,24.63
2018-03-25T22:11:57.236Z,28.15
2018-03-25T22:14:25.008Z,24.40
2018-03-25T22:16:53.280Z,24.05
2018-03-25T22:19:21.560Z,25.02
2018-03-25T22:21:49.856Z,25.00
2018-03-25T22:24:17.376Z,27.60
2018-03-25T22:26:44.974Z,25.30
2018-03-25T22:29:12.499Z,24.65
2018-03-25T22:31:40.786Z,25.27
2018-03-25T22:34:08.302Z,25.42
2018-03-25T22:36:36.625Z,28.05
2018-03-25T22:39:04.135Z,26.37
2018-03-25T22:41:31.654Z,25.55
2018-03-25T22:43:59.163Z,25.12
2018-03-25T22:46:26.720Z,25.62
2018-03-25T22:48:54.233Z,24.45
2018-03-25T22:51:21.756Z,24.77
2018-03-25T22:53:49.283Z,24.12
2018-03-25T22:56:16.818Z,24.48
2018-03-25T22:58:44.353Z,25.45
2018-03-25T23:01:12.656Z,25.25
2018-03-25T23:03:40.174Z,24.50
2018-03-25T23:06:07.696Z,25.17
2018-03-25T23:08:35.268Z,25.62
2018-03-25T23:11:02.781Z,24.48
2018-03-25T23:13:30.467Z,24.45
2018-03-25T23:15:58.014Z,25.12
2018-03-25T23:18:25.547Z,25.05
2018-03-25T23:20:53.858Z,25.80
2018-03-25T23:23:21.385Z,25.17
2018-03-25T23:25:49.662Z,25.48
2018-03-25T23:28:17.953Z,28.70
2018-03-25T23:30:46.264Z,25.02
2018-03-25T23:33:13.780Z,26.25
2018-03-25T23:35:41.321Z,24.67
2018-03-25T23:38:08.850Z,26.40
2018-03-25T23:40:36.361Z,25.42
2018-03-25T23:43:03.909Z,26.00
2018-03-25T23:45:31.456Z,28.80
2018-03-25T23:47:58.988Z,25.77
2018-03-25T23:50:26.563Z,25.25
2018-03-25T23:52:54.092Z,27.77
2018-03-25T23:55:21.612Z,27.67
2018-03-25T23:57:49.930Z,25.02
